Time;durP1;ratioP1;P1;durP2;ratioP2;P2;SDS_P1;SDS_P2;PMS_P1;PMS_P2;Temp;Humidity;BMP_temperature;BMP_pressure;BME280_temperature;BME280_humidity;BME280_pressure;Samples;Min_cycle;Max_cycle;Signal;HPM_P1;HPM_P2
2022/05/08 00:01:23;;;;;;;14.73;4.37;;;;;;;5.43;100.00;101636.16;7365723;19;20986;-57
2022/05/08 00:03:53;;;;;;;19.73;3.83;;;;;;;5.39;100.00;101619.69;7396566;19;20456;-53
2022/05/08 00:06:22;;;;;;;15.40;3.20;;;;;;;5.37;100.00;101620.34;7364060;19;20413;-56
2022/05/08 00:08:52;;;;;;;19.90;5.27;;;;;;;5.31;100.00;101617.31;7394686;19;20371;-56
2022/05/08 00:11:21;;;;;;;32.40;11.63;;;;;;;5.29;100.00;101606.06;7352907;19;20693;-58
2022/05/08 00:13:51;;;;;;;22.10;4.33;;;;;;;5.26;100.00;101599.94;7395793;19;20396;-56
2022/05/08 00:16:23;;;;;;;16.90;4.40;;;;;;;5.31;100.00;101592.63;7389535;19;20413;-58
2022/05/08 00:18:53;;;;;;;18.63;4.40;;;;;;;5.26;100.00;101588.81;7397634;19;20407;-57
2022/05/08 00:21:22;;;;;;;17.17;4.50;;;;;;;5.20;100.00;101581.56;7389646;19;20394;-55
2022/05/08 00:23:52;;;;;;;11.00;3.33;;;;;;;5.10;100.00;101566.28;7396742;19;20382;-53
2022/05/08 00:26:22;;;;;;;10.73;3.07;;;;;;;5.07;100.00;101548.16;7389952;19;20418;-53
2022/05/08 00:28:52;;;;;;;19.23;4.37;;;;;;;5.01;100.00;101538.31;7395651;19;20391;-58
2022/05/08 00:31:24;;;;;;;12.27;3.27;;;;;;;4.94;100.00;101520.72;7391900;19;20374;-56
2022/05/08 00:33:55;;;;;;;17.53;4.10;;;;;;;4.94;100.00;101501.16;7401380;19;20392;-58
2022/05/08 00:36:25;;;;;;;16.17;2.87;;;;;;;4.91;100.00;101494.94;7390386;19;20790;-57
2022/05/08 00:38:55;;;;;;;16.60;3.87;;;;;;;4.95;100.00;101485.03;7397578;19;20459;-55
2022/05/08 00:41:24;;;;;;;12.23;2.67;;;;;;;4.90;100.00;101478.69;7391674;19;22512;-59
2022/05/08 00:43:54;;;;;;;14.77;3.97;;;;;;;4.82;100.00;101469.53;7396408;19;20432;-54
2022/05/08 00:46:27;;;;;;;16.33;4.03;;;;;;;4.84;100.00;101458.66;7388737;19;20459;-56
2022/05/08 00:48:57;;;;;;;11.33;3.17;;;;;;;4.71;100.00;101445.69;7395095;19;20451;-56
2022/05/08 00:51:27;;;;;;;12.30;3.23;;;;;;;4.76;100.00;101426.47;7370016;19;20354;-53
2022/05/08 00:53:59;;;;;;;9.57;3.00;;;;;;;4.77;100.00;101409.47;7394722;19;20388;-53
2022/05/08 00:56:29;;;;;;;19.03;4.37;;;;;;;4.67;100.00;101401.09;7376848;19;20810;-57
2022/05/08 00:58:59;;;;;;;12.10;3.40;;;;;;;4.65;100.00;101379.66;7396451;19;20913;-58
2022/05/08 01:01:31;;;;;;;13.13;3.53;;;;;;;4.63;100.00;101370.97;7361483;19;20371;-58
2022/05/08 01:04:01;;;;;;;10.90;2.83;;;;;;;4.59;100.00;101351.97;7393969;19;20398;-56
2022/05/08 01:06:32;;;;;;;13.90;3.97;;;;;;;4.60;100.00;101334.94;7355896;19;20398;-55
2022/05/08 01:09:02;;;;;;;29.47;4.50;;;;;;;4.53;100.00;101331.06;7393322;19;20367;-56
2022/05/08 01:11:31;;;;;;;14.27;3.40;;;;;;;4.54;100.00;101320.06;7350491;19;20953;-54
2022/05/08 01:14:01;;;;;;;12.10;3.17;;;;;;;4.50;100.00;101310.38;7393914;19;20386;-57
2022/05/08 01:16:33;;;;;;;13.40;3.07;;;;;;;4.47;100.00;101297.38;7346690;19;20717;-57
2022/05/08 01:19:02;;;;;;;14.97;3.37;;;;;;;4.36;100.00;101299.09;7394787;19;20474;-57
2022/05/08 01:21:41;;;;;;;13.10;3.33;;;;;;;4.33;100.00;101273.34;7354345;19;20418;-58
2022/05/08 01:24:11;;;;;;;20.60;4.20;;;;;;;4.28;100.00;101255.09;7393847;19;20380;-58
2022/05/08 01:26:40;;;;;;;20.07;4.00;;;;;;;4.16;100.00;101244.84;7356157;19;20378;-57
2022/05/08 01:29:10;;;;;;;14.80;3.73;;;;;;;4.11;100.00;101230.81;7393243;19;20363;-56
2022/05/08 01:31:40;;;;;;;14.47;4.00;;;;;;;4.13;100.00;101202.84;7363982;19;20381;-56
2022/05/08 01:34:09;;;;;;;11.00;3.70;;;;;;;4.09;100.00;101185.53;7393680;19;20390;-58
2022/05/08 01:36:42;;;;;;;19.53;4.30;;;;;;;4.08;100.00;101169.31;7360392;19;20387;-56
2022/05/08 01:39:11;;;;;;;16.10;4.83;;;;;;;4.08;100.00;101159.09;7394138;19;20374;-59
2022/05/08 01:41:41;;;;;;;12.10;2.93;;;;;;;4.09;100.00;101140.44;7354663;19;20390;-58
2022/05/08 01:44:10;;;;;;;13.60;3.87;;;;;;;4.00;100.00;101124.44;7389612;19;20402;-58
2022/05/08 01:46:40;;;;;;;15.50;4.30;;;;;;;4.06;100.00;101112.13;7377844;19;20478;-58
2022/05/08 01:49:07;;;;;;;14.60;3.70;;;;;;;4.02;100.00;101103.38;7392514;19;20904;-57
2022/05/08 01:51:36;;;;;;;15.70;2.93;;;;;;;3.92;100.00;101095.78;7353673;19;20401;-53
2022/05/08 01:54:08;;;;;;;7.60;2.97;;;;;;;3.89;100.00;101086.22;7393241;19;20714;-58
2022/05/08 01:56:38;;;;;;;10.30;3.70;;;;;;;3.81;100.00;101066.91;7386913;19;20415;-53
2022/05/08 01:59:08;;;;;;;13.43;4.30;;;;;;;3.85;100.00;101063.78;7394532;19;20910;-56
2022/05/08 02:01:37;;;;;;;15.33;3.70;;;;;;;3.83;100.00;101055.13;7358791;19;20411;-58
2022/05/08 02:04:12;;;;;;;17.10;3.30;;;;;;;3.77;100.00;101041.94;7392719;19;20421;-55
2022/05/08 02:06:41;;;;;;;21.47;3.23;;;;;;;3.79;100.00;101032.72;7366147;19;20769;-54
2022/05/08 02:09:13;;;;;;;13.33;3.93;;;;;;;3.85;100.00;101027.19;7392220;19;20363;-57
2022/05/08 02:11:43;;;;;;;13.20;3.60;;;;;;;3.90;100.00;101019.06;7388611;19;20391;-56
2022/05/08 02:14:12;;;;;;;19.93;4.37;;;;;;;3.84;100.00;101016.06;7392653;19;20729;-57
2022/05/08 02:16:42;;;;;;;19.53;5.50;;;;;;;3.75;100.00;101020.50;7386088;19;20415;-56
2022/05/08 02:19:11;;;;;;;17.23;4.00;;;;;;;3.80;100.00;101016.66;7394078;19;20727;-56
2022/05/08 02:21:41;;;;;;;14.40;4.00;;;;;;;3.62;100.00;101011.06;7358253;19;20403;-54
2022/05/08 02:24:13;;;;;;;14.87;3.53;;;;;;;3.52;100.00;101001.81;7392270;19;20736;-58
2022/05/08 02:26:42;;;;;;;13.77;3.37;;;;;;;3.47;100.00;100995.50;7359821;19;20400;-54
2022/05/08 02:29:12;;;;;;;19.90;4.20;;;;;;;3.55;100.00;100994.41;7391792;19;20367;-59
2022/05/08 02:31:41;;;;;;;16.07;4.23;;;;;;;3.47;100.00;100992.94;7353167;19;20424;-58
2022/05/08 02:34:11;;;;;;;18.03;4.30;;;;;;;3.47;100.00;100987.84;7396313;19;20395;-56
2022/05/08 02:36:40;;;;;;;12.50;3.70;;;;;;;3.47;100.00;100985.28;7359073;19;20449;-57
2022/05/08 02:39:12;;;;;;;16.73;4.20;;;;;;;3.43;100.00;100985.84;7392557;19;20371;-51
2022/05/08 02:41:42;;;;;;;14.07;4.13;;;;;;;3.34;100.00;100981.81;7357721;19;20397;-55
2022/05/08 02:44:11;;;;;;;14.50;4.03;;;;;;;3.27;100.00;100979.59;7391761;19;20370;-56
2022/05/08 02:46:40;;;;;;;16.80;3.83;;;;;;;3.34;100.00;100973.31;7385160;19;20390;-58
2022/05/08 02:49:10;;;;;;;19.37;5.40;;;;;;;3.30;100.00;100956.88;7392408;19;20376;-56
2022/05/08 02:51:39;;;;;;;11.97;4.37;;;;;;;3.37;100.00;100946.34;7387792;19;20414;-57
2022/05/08 02:54:09;;;;;;;20.90;4.53;;;;;;;3.38;100.00;100947.22;7392587;19;20936;-59
2022/05/08 02:59:23;;;;;;;16.67;4.60;;;;;;;3.30;100.00;100939.03;7392792;19;20369;-59
2022/05/08 03:01:52;;;;;;;16.27;4.43;;;;;;;3.33;100.00;100926.47;7392942;19;20920;-58
2022/05/08 03:04:22;;;;;;;15.60;4.10;;;;;;;3.14;100.00;100929.34;7399238;19;20406;-58
2022/05/08 03:06:51;;;;;;;13.67;4.23;;;;;;;3.08;100.00;100922.13;7394382;19;21021;-57
2022/05/08 03:09:22;;;;;;;19.33;4.30;;;;;;;3.13;100.00;100917.34;7402963;19;20383;-58
2022/05/08 03:11:54;;;;;;;17.43;4.13;;;;;;;3.09;100.00;100920.47;7394667;19;20399;-56
2022/05/08 03:14:24;;;;;;;19.93;4.80;;;;;;;3.00;100.00;100912.09;7399161;19;20383;-58
2022/05/08 03:16:53;;;;;;;22.40;4.30;;;;;;;3.01;100.00;100902.03;7357380;19;20366;-57
2022/05/08 03:19:25;;;;;;;13.77;5.20;;;;;;;2.96;100.00;100903.34;7398677;19;20398;-57
2022/05/08 03:21:55;;;;;;;14.20;4.87;;;;;;;2.97;100.00;100892.38;7359956;19;20784;-57
2022/05/08 03:24:24;;;;;;;13.33;4.17;;;;;;;2.89;100.00;100884.19;7397683;19;20371;-57
2022/05/08 03:26:56;;;;;;;20.00;4.87;;;;;;;2.77;100.00;100873.94;7354471;19;20381;-58
2022/05/08 03:29:26;;;;;;;18.40;4.90;;;;;;;2.83;100.00;100869.28;7397473;19;20387;-57
2022/05/08 03:31:56;;;;;;;17.03;4.70;;;;;;;2.89;100.00;100857.78;7362788;19;20370;-56
2022/05/08 03:34:25;;;;;;;15.17;4.87;;;;;;;2.84;100.00;100848.13;7397366;19;20390;-58
2022/05/08 03:36:55;;;;;;;20.03;6.10;;;;;;;2.84;100.00;100837.06;7363088;19;20420;-58
2022/05/08 03:39:24;;;;;;;14.43;4.97;;;;;;;2.76;100.00;100833.94;7398084;19;20431;-56
2022/05/08 03:41:56;;;;;;;17.37;5.10;;;;;;;2.80;100.00;100823.22;7382779;19;20409;-56
2022/05/08 03:44:26;;;;;;;16.60;5.40;;;;;;;2.77;100.00;100817.88;7397805;19;20388;-58
2022/05/08 03:46:55;;;;;;;20.23;5.50;;;;;;;2.81;100.00;100817.34;7368731;19;20371;-59
2022/05/08 03:49:25;;;;;;;20.67;5.40;;;;;;;2.80;100.00;100813.00;7396899;19;20370;-59
2022/05/08 03:51:54;;;;;;;17.57;5.40;;;;;;;2.80;100.00;100805.38;7363733;19;20378;-59
2022/05/08 03:54:24;;;;;;;20.50;5.97;;;;;;;2.80;100.00;100809.56;7396595;19;20390;-57
2022/05/08 03:56:53;;;;;;;23.33;6.13;;;;;;;2.81;100.00;100804.59;7386032;19;20739;-59
2022/05/08 03:59:25;;;;;;;20.03;6.07;;;;;;;2.79;100.00;100798.50;7398290;19;20391;-56
2022/05/08 04:01:55;;;;;;;24.90;6.37;;;;;;;2.76;100.00;100798.25;7362105;19;20414;-58
2022/05/08 04:04:25;;;;;;;70.33;28.10;;;;;;;2.94;100.00;100787.66;7396419;19;20462;-57
2022/05/08 04:06:55;;;;;;;62.60;20.03;;;;;;;3.09;100.00;100773.44;7364582;19;20458;-58
2022/05/08 04:09:24;;;;;;;31.73;9.00;;;;;;;3.12;100.00;100764.28;7396391;19;20367;-58
2022/05/08 04:11:54;;;;;;;19.53;7.50;;;;;;;3.08;100.00;100766.59;7391777;19;20397;-55
2022/05/08 04:14:26;;;;;;;30.27;10.47;;;;;;;3.16;100.00;100761.16;7397216;19;20375;-59
2022/05/08 04:16:55;;;;;;;26.50;7.20;;;;;;;3.14;100.00;100757.59;7358633;19;20404;-58
2022/05/08 04:19:24;;;;;;;18.90;5.30;;;;;;;3.02;100.00;100763.59;7396351;19;20359;-53
2022/05/08 04:24:16;;;;;;;21.43;6.50;;;;;;;3.12;100.00;100761.72;7347525;19;20931;-58
2022/05/08 04:24:42;;;;;;;17.53;6.90;;;;;;;3.25;100.00;100764.38;7396930;19;20423;-57
2022/05/08 04:27:11;;;;;;;30.80;7.80;;;;;;;3.24;100.00;100760.06;7360811;19;20421;-55
2022/05/08 04:29:43;;;;;;;17.10;5.60;;;;;;;3.42;100.00;100762.13;7396011;19;20370;-55
2022/05/08 04:32:13;;;;;;;22.70;5.90;;;;;;;3.32;100.00;100768.22;7363846;19;20426;-57
2022/05/08 04:34:42;;;;;;;20.60;6.00;;;;;;;3.36;100.00;100760.94;7395620;19;20399;-55
2022/05/08 04:37:12;;;;;;;21.10;6.00;;;;;;;3.37;100.00;100767.78;7351044;19;20486;-57
2022/05/08 04:39:41;;;;;;;14.80;6.30;;;;;;;3.43;100.00;100766.47;7396129;19;20366;-57
2022/05/08 04:42:11;;;;;;;22.53;6.67;;;;;;;3.45;100.00;100775.09;7370548;19;20385;-56
2022/05/08 04:44:44;;;;;;;25.27;6.00;;;;;;;3.32;100.00;100770.78;7394854;19;20407;-54
2022/05/08 04:47:13;;;;;;;27.37;6.90;;;;;;;3.36;100.00;100775.34;7364363;19;20402;-58
2022/05/08 04:49:42;;;;;;;18.10;6.20;;;;;;;3.46;100.00;100789.63;7395425;19;20442;-57
2022/05/08 04:52:12;;;;;;;9.90;5.03;;;;;;;3.49;100.00;100792.41;7367296;19;20378;-59
2022/05/08 04:54:42;;;;;;;16.00;5.40;;;;;;;3.53;100.00;100791.84;7395113;19;20403;-58
2022/05/08 04:57:11;;;;;;;12.10;5.10;;;;;;;3.61;100.00;100798.38;7381957;19;20386;-57
2022/05/08 04:59:43;;;;;;;19.67;4.90;;;;;;;3.74;100.00;100801.78;7398906;19;20808;-58
2022/05/08 05:02:14;;;;;;;24.70;11.57;;;;;;;3.79;100.00;100797.88;7362418;19;20735;-58
2022/05/08 05:04:44;;;;;;;12.43;5.10;;;;;;;3.81;100.00;100810.75;7394351;19;20483;-56
2022/05/08 05:07:13;;;;;;;13.20;5.77;;;;;;;3.86;100.00;100810.31;7348641;19;20400;-59
2022/05/08 05:09:43;;;;;;;21.80;5.20;;;;;;;3.87;100.00;100824.84;7394818;19;20399;-57
2022/05/08 05:12:14;;;;;;;21.90;6.27;;;;;;;3.95;100.00;100829.59;7357815;19;20764;-58
2022/05/08 05:14:46;;;;;;;27.90;6.00;;;;;;;4.00;100.00;100835.91;7394132;19;20456;-56
2022/05/08 05:17:15;;;;;;;18.37;4.97;;;;;;;4.07;100.00;100835.56;7361972;19;20374;-59
2022/05/08 05:19:45;;;;;;;20.63;8.17;;;;;;;4.29;100.00;100842.13;7394906;19;20723;-53
2022/05/08 05:22:14;;;;;;;19.20;5.03;;;;;;;4.32;100.00;100852.56;7387859;19;20410;-56
2022/05/08 05:24:44;;;;;;;23.93;4.60;;;;;;;4.33;100.00;100860.31;7393286;19;20413;-56
2022/05/08 05:27:13;;;;;;;12.73;4.10;;;;;;;4.42;100.00;100864.31;7364479;19;20395;-58
2022/05/08 05:29:45;;;;;;;13.47;4.27;;;;;;;4.44;100.00;100866.19;7394216;19;20402;-58
2022/05/08 05:32:15;;;;;;;16.00;4.97;;;;;;;4.48;100.00;100871.50;7362939;19;20415;-55
2022/05/08 05:34:44;;;;;;;17.77;4.83;;;;;;;4.51;100.00;100876.81;7393740;19;20484;-59
2022/05/08 05:37:14;;;;;;;18.10;4.27;;;;;;;4.61;100.00;100886.88;7390015;19;20412;-58
2022/05/08 05:39:44;;;;;;;13.43;4.13;;;;;;;4.69;100.00;100890.84;7395148;19;20390;-56
2022/05/08 05:42:13;;;;;;;12.47;4.37;;;;;;;5.02;100.00;100894.69;7364008;19;20434;-57
2022/05/08 05:44:45;;;;;;;12.17;4.87;;;;;;;4.99;100.00;100906.47;7393159;19;20976;-58
2022/05/08 05:49:56;;;;;;;9.73;3.50;;;;;;;5.04;100.00;100922.13;7394901;19;20375;-58
2022/05/08 05:52:27;;;;;;;17.53;4.23;;;;;;;5.11;100.00;100936.22;7361300;19;20418;-57
2022/05/08 05:54:57;;;;;;;13.13;4.80;;;;;;;5.22;100.00;100942.03;7394751;19;20425;-57
2022/05/08 05:57:26;;;;;;;17.67;4.70;;;;;;;5.34;100.00;100945.41;7391926;19;20397;-57
2022/05/08 05:59:58;;;;;;;21.33;4.33;;;;;;;5.46;100.00;100954.69;7394241;19;20466;-59
2022/05/08 06:02:28;;;;;;;18.67;3.80;;;;;;;5.52;100.00;100976.47;7383839;19;20407;-59
2022/05/08 06:04:58;;;;;;;15.93;3.60;;;;;;;5.63;100.00;100977.16;7393150;19;20816;-58
2022/05/08 06:07:27;;;;;;;10.60;3.30;;;;;;;5.66;100.00;100979.91;7344605;19;20392;-59
2022/05/08 06:10:03;;;;;;;17.50;3.90;;;;;;;5.72;100.00;100984.56;7395431;19;20395;-56
2022/05/08 06:12:34;;;;;;;19.63;3.27;;;;;;;5.80;100.00;100988.47;7388541;19;21017;-58
2022/05/08 06:15:08;;;;;;;13.70;3.30;;;;;;;5.97;100.00;100993.81;7392912;19;20419;-54
2022/05/08 06:17:38;;;;;;;15.97;3.43;;;;;;;6.03;100.00;101001.94;7386495;19;20490;-58
2022/05/08 06:20:08;;;;;;;12.27;3.70;;;;;;;6.13;100.00;101010.19;7393815;19;20394;-56
2022/05/08 06:22:38;;;;;;;20.33;3.90;;;;;;;6.30;100.00;101011.28;7394099;19;20388;-56
2022/05/08 06:25:08;;;;;;;17.10;3.23;;;;;;;6.39;100.00;101031.47;7387968;19;20504;-52
2022/05/08 06:27:38;;;;;;;20.03;3.10;;;;;;;6.45;100.00;101036.97;7393329;19;20390;-58
2022/05/08 06:30:12;;;;;;;22.83;4.13;;;;;;;6.55;100.00;101038.44;7386120;19;20397;-57
2022/05/08 06:32:41;;;;;;;19.57;4.57;;;;;;;6.59;100.00;101053.22;7391236;19;20387;-55
2022/05/08 06:35:31;;;;;;;20.23;3.40;;;;;;;6.74;100.00;101058.44;7391374;19;20397;-59
2022/05/08 06:38:00;;;;;;;15.23;3.23;;;;;;;6.88;100.00;101075.56;7400864;19;20377;-57
2022/05/08 06:40:30;;;;;;;17.23;3.73;;;;;;;6.98;100.00;101086.41;7374994;19;20420;-56
2022/05/08 06:43:00;;;;;;;22.63;3.67;;;;;;;6.99;100.00;101093.31;7403038;19;20456;-57
2022/05/08 06:45:32;;;;;;;22.07;4.70;;;;;;;7.04;100.00;101117.56;7393225;19;20462;-57
2022/05/08 06:48:01;;;;;;;21.87;3.60;;;;;;;7.11;100.00;101137.69;7400376;19;20395;-57
2022/05/08 06:50:33;;;;;;;22.90;4.40;;;;;;;7.15;100.00;101162.75;7389491;19;20488;-53
2022/05/08 06:53:04;;;;;;;22.60;4.87;;;;;;;7.23;100.00;101176.03;7399983;19;20413;-56
2022/05/08 06:55:34;;;;;;;12.90;2.87;;;;;;;7.23;100.00;101200.84;7372392;19;20414;-57
2022/05/08 06:58:04;;;;;;;17.57;4.00;;;;;;;7.30;100.00;101203.84;7398899;19;20787;-56
2022/05/08 07:03:18;;;;;;;29.93;4.60;;;;;;;7.48;100.00;101218.63;7399187;19;20390;-57
2022/05/08 07:05:49;;;;;;;28.10;6.70;;;;;;;7.50;100.00;101229.91;7396309;19;20513;-56
2022/05/08 07:08:18;;;;;;;18.63;3.70;;;;;;;7.66;100.00;101231.72;7374793;19;20469;-57
2022/05/08 07:10:48;;;;;;;21.20;4.30;;;;;;;7.72;100.00;101248.28;7404185;19;20389;-57
2022/05/08 07:13:22;;;;;;;15.93;2.77;;;;;;;7.70;100.00;101277.34;7393472;19;20763;-56
2022/05/08 07:15:54;;;;;;;17.73;3.43;;;;;;;7.79;100.00;101286.44;7397041;19;20431;-58
2022/05/08 07:18:31;;;;;;;36.80;8.03;;;;;;;7.92;100.00;101288.06;7362613;19;20922;-58
2022/05/08 07:21:00;;;;;;;21.07;3.77;;;;;;;8.06;100.00;101294.91;7398878;19;20384;-54
2022/05/08 07:23:33;;;;;;;14.27;3.37;;;;;;;8.07;100.00;101298.38;7391907;19;21009;-57
2022/05/08 07:26:03;;;;;;;12.87;2.80;;;;;;;8.07;100.00;101322.41;7396795;19;20498;-58
2022/05/08 07:28:32;;;;;;;13.37;3.70;;;;;;;8.19;100.00;101322.25;7365177;19;20430;-57
2022/05/08 07:31:05;;;;;;;14.43;3.27;;;;;;;8.24;100.00;101361.09;7399020;19;20376;-58
2022/05/08 07:33:35;;;;;;;17.00;3.70;;;;;;;8.21;100.00;101377.22;7388448;19;20422;-58
2022/05/08 07:36:15;;;;;;;15.50;2.87;;;;;;;8.29;100.00;101372.53;7397142;19;20486;-58
2022/05/08 07:38:45;;;;;;;15.17;3.00;;;;;;;8.31;100.00;101404.38;7382807;19;20464;-56
2022/05/08 07:41:17;;;;;;;15.40;2.60;;;;;;;8.42;100.00;101409.28;7398787;19;20459;-59
2022/05/08 07:43:47;;;;;;;13.50;2.67;;;;;;;8.58;100.00;101411.16;7371417;19;20454;-59
2022/05/08 07:46:19;;;;;;;20.17;3.10;;;;;;;8.66;100.00;101429.63;7393959;19;20965;-57
2022/05/08 07:48:49;;;;;;;15.83;3.53;;;;;;;8.76;100.00;101432.84;7369375;19;20394;-57
2022/05/08 07:51:18;;;;;;;25.87;4.90;;;;;;;8.83;100.00;101475.28;7395046;19;20439;-59
2022/05/08 07:53:48;;;;;;;14.40;3.13;;;;;;;8.98;100.00;101500.16;7362138;19;20411;-57
2022/05/08 07:56:17;;;;;;;17.03;3.27;;;;;;;9.02;100.00;101532.97;7395129;19;20836;-58
2022/05/08 07:58:47;;;;;;;36.23;6.60;;;;;;;9.14;100.00;101532.84;7390066;19;20415;-56
2022/05/08 08:01:19;;;;;;;22.13;4.37;;;;;;;9.19;100.00;101546.91;7400921;19;20459;-57
2022/05/08 08:04:09;;;;;;;12.50;3.70;;;;;;;9.27;100.00;101575.66;7391311;19;20756;-57
2022/05/08 08:06:40;;;;;;;18.53;3.37;;;;;;;9.35;100.00;101625.06;7395350;19;20494;-54
2022/05/08 08:09:10;;;;;;;13.23;3.23;;;;;;;9.36;100.00;101662.88;7392144;19;20922;-58
2022/05/08 08:11:42;;;;;;;20.30;6.17;;;;;;;9.56;100.00;101677.00;7397305;19;20894;-57
2022/05/08 08:14:11;;;;;;;18.37;3.90;;;;;;;9.61;100.00;101687.56;7390477;19;20419;-55
2022/05/08 08:17:04;;;;;;;23.57;5.80;;;;;;;9.82;100.00;101691.44;7400551;19;20400;-54
2022/05/08 08:19:33;;;;;;;16.53;3.50;;;;;;;9.75;100.00;101722.81;7390264;19;20430;-59
2022/05/08 08:22:03;;;;;;;18.17;3.67;;;;;;;9.91;100.00;101736.63;7395543;19;20392;-58
2022/05/08 08:24:32;;;;;;;66.87;31.70;;;;;;;10.05;100.00;101750.34;7363384;19;20510;-59
2022/05/08 08:27:02;;;;;;;24.83;3.63;;;;;;;9.99;100.00;101792.09;7397235;19;20380;-59
2022/05/08 08:29:31;;;;;;;17.17;3.47;;;;;;;9.95;100.00;101834.84;7360113;19;20796;-58
2022/05/08 08:32:04;;;;;;;20.83;5.80;;;;;;;9.88;100.00;101840.44;7396459;19;20483;-57
2022/05/08 08:34:34;;;;;;;20.20;4.77;;;;;;;9.85;100.00;101843.69;7360485;19;20443;-57
2022/05/08 08:37:03;;;;;;;23.47;4.07;;;;;;;10.01;100.00;101831.78;7396964;19;20754;-59
2022/05/08 08:39:33;;;;;;;19.37;4.73;;;;;;;10.18;100.00;101837.03;7362745;19;20450;-57
2022/05/08 08:42:05;;;;;;;20.00;3.70;;;;;;;10.43;100.00;101836.88;7394004;19;20470;-58
2022/05/08 08:50:05;;;;;;;16.77;4.27;;;;;;;10.48;100.00;101911.97;7393552;19;20413;-57
2022/05/08 08:52:35;;;;;;;23.87;3.60;;;;;;;10.82;100.00;101911.41;7391975;19;20413;-60
2022/05/08 08:55:04;;;;;;;20.30;3.20;;;;;;;10.96;100.00;101950.09;7388790;19;20438;-58
2022/05/08 08:57:34;;;;;;;11.57;2.63;;;;;;;10.80;100.00;101978.47;7384648;19;20403;-60
2022/05/08 09:00:04;;;;;;;17.00;3.13;;;;;;;11.07;100.00;101991.22;7394817;19;20392;-58
2022/05/08 09:02:37;;;;;;;11.77;3.63;;;;;;;10.79;100.00;102037.72;7385899;19;20383;-60
2022/05/08 09:05:09;;;;;;;13.83;3.90;;;;;;;10.92;100.00;102027.34;7392101;19;20415;-56
2022/05/08 09:07:45;;;;;;;16.43;2.97;;;;;;;10.82;100.00;102043.06;7370060;19;20399;-59
2022/05/08 09:10:18;;;;;;;17.10;3.47;;;;;;;10.98;100.00;102026.81;7393923;19;20411;-55
2022/05/08 09:13:03;;;;;;;17.77;2.80;;;;;;;11.14;100.00;102023.50;7387393;19;20391;-58
2022/05/08 09:15:40;;;;;;;11.60;3.10;;;;;;;11.06;100.00;102059.19;7392301;19;20981;-57
2022/05/08 09:18:14;;;;;;;11.00;2.97;;;;;;;10.91;100.00;102074.63;7360847;19;21369;-58
2022/05/08 09:20:47;;;;;;;19.53;2.80;;;;;;;10.96;100.00;102061.13;7393260;19;20379;-57
2022/05/08 09:23:18;;;;;;;12.97;3.00;;;;;;;11.14;100.00;102082.00;7368232;19;21299;-56
2022/05/08 09:25:56;;;;;;;11.73;3.00;;;;;;;11.31;100.00;102096.84;7392812;19;20411;-56
2022/05/08 09:28:36;;;;;;;16.73;3.67;;;;;;;11.57;100.00;102094.00;7367859;19;20484;-57
2022/05/08 09:31:07;;;;;;;19.50;3.60;;;;;;;11.81;100.00;102098.84;7395478;19;20386;-56
2022/05/08 09:33:40;;;;;;;16.37;3.40;;;;;;;11.90;100.00;102107.13;7357709;19;20427;-57
2022/05/08 09:36:11;;;;;;;14.67;3.20;;;;;;;11.69;100.00;102111.94;7392051;19;20433;-58
2022/05/08 09:38:45;;;;;;;14.37;3.17;;;;;;;11.48;100.00;102097.84;7386405;19;20755;-57
2022/05/08 09:41:17;;;;;;;15.60;2.73;;;;;;;11.21;100.00;102105.72;7394263;19;20390;-52
2022/05/08 09:43:46;;;;;;;13.20;3.00;;;;;;;11.50;100.00;102110.84;7386667;19;20496;-55
2022/05/08 09:46:17;;;;;;;13.00;2.80;;;;;;;11.81;100.00;102111.75;7392250;19;20424;-55
2022/05/08 09:48:50;;;;;;;18.00;3.70;;;;;;;11.52;100.00;102119.59;7387938;19;20402;-56
2022/05/08 09:51:21;;;;;;;13.83;3.70;;;;;;;11.77;100.00;102117.53;7394020;19;20388;-57
2022/05/08 09:53:51;;;;;;;16.30;3.93;;;;;;;12.04;100.00;102117.41;7386828;19;20414;-56
2022/05/08 09:56:20;;;;;;;11.13;3.13;;;;;;;12.28;100.00;102113.66;7392731;19;20418;-56
2022/05/08 09:58:50;;;;;;;15.83;3.27;;;;;;;12.37;100.00;102128.78;7387288;19;20419;-57
2022/05/08 10:01:20;;;;;;;13.13;3.23;;;;;;;12.42;100.00;102129.94;7393855;19;20764;-56
2022/05/08 10:03:52;;;;;;;14.63;3.70;;;;;;;12.50;100.00;102132.03;7388661;19;20411;-51
2022/05/08 10:06:22;;;;;;;19.57;3.90;;;;;;;12.52;100.00;102146.00;7392267;19;20434;-52
2022/05/08 10:08:51;;;;;;;12.30;3.37;;;;;;;12.35;100.00;102170.94;7386875;19;20506;-56
2022/05/08 10:14:04;;;;;;;11.50;3.33;;;;;;;12.66;100.00;102183.88;7374220;19;20765;-57
2022/05/08 10:16:50;;;;;;;11.63;2.87;;;;;;;12.96;100.00;102193.25;7391153;19;20429;-55
2022/05/08 10:19:56;;;;;;;14.33;3.57;;;;;;;12.94;100.00;102189.72;7389145;19;20424;-57
2022/05/08 10:22:48;;;;;;;22.30;3.97;;;;;;;13.10;100.00;102184.56;7393672;19;20395;-58
2022/05/08 10:25:18;;;;;;;8.70;2.53;;;;;;;12.96;100.00;102206.22;7391967;19;20412;-53
2022/05/08 10:28:10;;;;;;;18.73;3.70;;;;;;;13.16;100.00;102225.47;7388573;19;20404;-58
2022/05/08 10:30:40;;;;;;;10.10;3.73;;;;;;;13.22;100.00;102222.28;7393368;19;20387;-58
2022/05/08 10:33:09;;;;;;;15.73;3.60;;;;;;;13.28;100.00;102227.81;7386880;19;20743;-56
2022/05/08 10:35:39;;;;;;;15.03;3.17;;;;;;;13.45;100.00;102227.84;7391796;19;20419;-54
2022/05/08 10:38:24;;;;;;;15.50;3.70;;;;;;;13.59;100.00;102233.81;7387783;19;20484;-57
2022/05/08 10:40:55;;;;;;;19.17;3.60;;;;;;;13.51;100.00;102230.78;7393353;19;20795;-57
2022/05/08 10:43:32;;;;;;;14.20;3.23;;;;;;;13.57;100.00;102241.50;7387682;19;20835;-58
2022/05/08 10:46:26;;;;;;;11.57;3.43;;;;;;;13.58;100.00;102243.28;7391626;19;20408;-57
2022/05/08 10:48:57;;;;;;;9.37;2.93;;;;;;;13.74;100.00;102244.09;7386977;19;20431;-58
2022/05/08 10:51:27;;;;;;;13.13;3.23;;;;;;;13.61;100.00;102246.03;7392897;19;20397;-55
2022/05/08 10:54:11;;;;;;;8.70;2.80;;;;;;;13.75;100.00;102243.28;7387154;19;20443;-56
2022/05/08 10:56:50;;;;;;;17.60;3.40;;;;;;;13.85;100.00;102245.53;7390884;19;20417;-58
2022/05/08 10:59:19;;;;;;;14.57;3.50;;;;;;;13.86;100.00;102243.81;7378216;19;20422;-56
2022/05/08 11:01:53;;;;;;;14.27;3.00;;;;;;;13.88;100.00;102249.97;7391319;19;20991;-58
2022/05/08 11:04:24;;;;;;;13.90;2.97;;;;;;;13.82;100.00;102245.38;7359556;19;20673;-55
2022/05/08 11:06:54;;;;;;;10.13;2.93;;;;;;;14.09;100.00;102242.41;7392902;19;20406;-57
2022/05/08 11:09:26;;;;;;;21.37;4.93;;;;;;;13.96;100.00;102245.19;7364828;19;20419;-55
2022/05/08 11:11:56;;;;;;;17.57;4.00;;;;;;;14.10;100.00;102248.50;7392819;19;20398;-58
2022/05/08 11:14:26;;;;;;;20.63;5.40;;;;;;;14.44;100.00;102240.72;7353185;19;20443;-57
2022/05/08 11:16:56;;;;;;;16.27;3.80;;;;;;;14.57;100.00;102246.50;7392073;19;20391;-58
2022/05/08 11:19:28;;;;;;;10.57;2.80;;;;;;;14.53;100.00;102250.66;7350417;19;20438;-54
2022/05/08 11:22:08;;;;;;;15.27;3.40;;;;;;;14.05;100.00;102250.84;7393835;19;20384;-56
2022/05/08 11:24:40;;;;;;;17.73;4.83;;;;;;;14.37;100.00;102243.81;7361495;19;20402;-57
2022/05/08 11:27:15;;;;;;;22.70;9.80;;;;;;;14.67;100.00;102246.13;7399142;19;20386;-56
2022/05/08 11:29:50;;;;;;;13.07;3.60;;;;;;;14.90;100.00;102250.69;7361879;19;20746;-57
2022/05/08 11:38:01;;;;;;;18.43;3.30;;;;;;;14.49;100.00;102256.50;7368088;19;20390;-58
2022/05/08 11:40:33;;;;;;;17.10;4.13;;;;;;;14.42;100.00;102250.09;7397515;19;20379;-54
2022/05/08 11:43:03;;;;;;;14.10;3.90;;;;;;;14.33;100.00;102252.25;7363072;19;20442;-56
2022/05/08 11:45:32;;;;;;;15.07;3.17;;;;;;;14.36;100.00;102252.41;7395105;19;20425;-57
2022/05/08 11:48:02;;;;;;;11.20;3.13;;;;;;;14.61;100.00;102242.34;7373061;19;20439;-57
2022/05/08 11:50:31;;;;;;;14.93;3.40;;;;;;;14.77;100.00;102249.22;7398018;19;20388;-55
2022/05/08 11:53:04;;;;;;;9.70;3.30;;;;;;;14.64;100.00;102242.47;7367730;19;20419;-55
2022/05/08 11:55:47;;;;;;;12.07;3.50;;;;;;;14.94;100.00;102243.13;7394782;19;20429;-58